Main page
METAR-TAF:

METAR-TAF

Airports :

Bassatine Air Base

Meknes, Morocco

latitude: 33-53N, longitude: 005-32W, elevation: 576 m

Current weather observation

The report was made 1 hour and 38 minutes ago, at 01:00 UTC
Wind 4 kt from the South
Temperature 20°C
Humidity 49%
Pressure 1021 hPa
Visibility: 6000 m

METAR: GMFM 030100Z 18004KT 6000 NSC 20/09 Q1021 NOSIG

Time: 03:38 (02:38 UTC)

Forecast

The report was made 3 hours and 38 minutes ago, at 23:00 UTC
Forecast valid from 03 at 00 UTC to 04 at 06 UTC
Wind 2 kt from variable directions
Visibility: 6000 m
Temporary
from 03 at 12 UTC to 03 at 19 UTC
Wind 12 kt from the North/Northwest
Visibility 10 km or more
Few clouds at a height of 2300 ft

TAF: GMFM 022300Z 0300/0406 VRB02KT 6000 NSC TEMPO 0312/0319 34012KT 9999 FEW023

Weather observations and forecasts of more than 4000 airports (METAR and TAF reports).

The available stations are represented by yellow and red dots on the map.

Hover mouse over dot to see the name of the station.

Then click to see weather observations and forecasts.

To change the map : click on the green buttons with a black cross to zoom in, on the green button with a dash to zoom out, or on the green arrows for adjacent maps.


METAR-TAF: